Terminal Aerodrome Forecast
Issued by NWS

Home | Current Version | Previous Version | Text Only | Print | Product List | Glossary On
Versions: 1 2 3 4 5 6 7 8 9 10 11 12 13 14
764
FTUS46 KMFR 251741
TAFLMT
TAF
KLMT 251741Z 2518/2618 22010G20KT P6SM OVC035
     FM252000 24015G25KT P6SM VCSH SCT025 OVC035
     FM252300 24018G28KT 5SM -SN OVC025
     FM260100 24015G25KT 1/2SM SN SCT003 OVC009
     FM260600 28010KT 4SM -SHSN OVC020=

USA.gov is the U.S. government's official web portal to all federal, state and local government web resources and services.